Terminal Aerodrome Forecast
Issued by NWS Central Illinois

Home | Current Version | Previous Version | Text Only | Print | Product List | Glossary On
Versions: 1 2 3 4 5 6 7 8 9 10 11 12 13 14 15 16
000
FTUS43 KILX 220533
TAFPIA
TAF
KPIA 220533Z 2206/2306 18012G22KT P6SM VCSH BKN050
     FM221000 18014G24KT P6SM -SHRA VCTS OVC040CB
     FM221300 17012G19KT P6SM -SHRA OVC025
     FM221600 29015KT 4SM -RA BR SCT006 OVC012
     FM222300 33007KT P6SM SCT050 BKN250=

USA.gov is the U.S. government's official web portal to all federal, state and local government web resources and services.